<?xml version="1.0" encoding="UTF-8" standalone="no" ?>
<gpx xmlns="http://www.topografix.com/GPX/1/1" xmlns:xsi="http://www.w3.org/2001/XMLSchema-instance" xsi:schemaLocation="http://www.topografix.com/GPX/1/1 http://www.topografix.com/GPX/1/1/gpx.xsd" version="1.1" creator="VisuGPX - https://www.visugpx.com">
  <metadata>
    <name>Boucle Papiermuhle 1</name>
  </metadata>
  <trk>
    <name><![CDATA[2024-03-05 17:04:22]]></name>
    <trkseg>
      <trkpt lat="49.12388" lon="6.7594">
        <ele>230.19</ele>
        <time>2024-03-05T14:51:56Z</time>
      </trkpt>
      <trkpt lat="49.12396" lon="6.75955">
        <ele>231.13</ele>
        <time>2024-03-05T14:54:14Z</time>
      </trkpt>
      <trkpt lat="49.12391" lon="6.75971">
        <ele>230.54</ele>
        <time>2024-03-05T14:54:23Z</time>
      </trkpt>
      <trkpt lat="49.12385" lon="6.75982">
        <ele>231.13</ele>
        <time>2024-03-05T14:54:31Z</time>
      </trkpt>
      <trkpt lat="49.12383" lon="6.75999">
        <ele>231.14</ele>
        <time>2024-03-05T14:54:39Z</time>
      </trkpt>
      <trkpt lat="49.12385" lon="6.76014">
        <ele>231.1</ele>
        <time>2024-03-05T14:54:47Z</time>
      </trkpt>
      <trkpt lat="49.12387" lon="6.76027">
        <ele>231.35</ele>
        <time>2024-03-05T14:54:55Z</time>
      </trkpt>
      <trkpt lat="49.1239" lon="6.7604">
        <ele>231.11</ele>
        <time>2024-03-05T14:55:03Z</time>
      </trkpt>
      <trkpt lat="49.12394" lon="6.76054">
        <ele>230.88</ele>
        <time>2024-03-05T14:55:11Z</time>
      </trkpt>
      <trkpt lat="49.12398" lon="6.76069">
        <ele>230.9</ele>
        <time>2024-03-05T14:55:19Z</time>
      </trkpt>
      <trkpt lat="49.12403" lon="6.7608">
        <ele>230.92</ele>
        <time>2024-03-05T14:55:26Z</time>
      </trkpt>
      <trkpt lat="49.12413" lon="6.76076">
        <ele>230.38</ele>
        <time>2024-03-05T14:55:33Z</time>
      </trkpt>
      <trkpt lat="49.12419" lon="6.76064">
        <ele>230.74</ele>
        <time>2024-03-05T14:55:40Z</time>
      </trkpt>
      <trkpt lat="49.12424" lon="6.76053">
        <ele>230.8</ele>
        <time>2024-03-05T14:55:47Z</time>
      </trkpt>
      <trkpt lat="49.1243" lon="6.76043">
        <ele>231.03</ele>
        <time>2024-03-05T14:55:54Z</time>
      </trkpt>
      <trkpt lat="49.12438" lon="6.76035">
        <ele>231.8</ele>
        <time>2024-03-05T14:56:01Z</time>
      </trkpt>
      <trkpt lat="49.12445" lon="6.76026">
        <ele>231.93</ele>
        <time>2024-03-05T14:56:08Z</time>
      </trkpt>
      <trkpt lat="49.1245" lon="6.76016">
        <ele>232.86</ele>
        <time>2024-03-05T14:56:16Z</time>
      </trkpt>
      <trkpt lat="49.12456" lon="6.76001">
        <ele>234.22</ele>
        <time>2024-03-05T14:56:24Z</time>
      </trkpt>
      <trkpt lat="49.12459" lon="6.75988">
        <ele>234.73</ele>
        <time>2024-03-05T14:56:31Z</time>
      </trkpt>
      <trkpt lat="49.12457" lon="6.75973">
        <ele>235.73</ele>
        <time>2024-03-05T14:56:39Z</time>
      </trkpt>
      <trkpt lat="49.12453" lon="6.75958">
        <ele>236.75</ele>
        <time>2024-03-05T14:56:47Z</time>
      </trkpt>
      <trkpt lat="49.1245" lon="6.75944">
        <ele>237.77</ele>
        <time>2024-03-05T14:56:55Z</time>
      </trkpt>
      <trkpt lat="49.12449" lon="6.75929">
        <ele>238.71</ele>
        <time>2024-03-05T14:57:03Z</time>
      </trkpt>
      <trkpt lat="49.12448" lon="6.75916">
        <ele>240.47</ele>
        <time>2024-03-05T14:57:11Z</time>
      </trkpt>
      <trkpt lat="49.12448" lon="6.75902">
        <ele>241.83</ele>
        <time>2024-03-05T14:57:19Z</time>
      </trkpt>
      <trkpt lat="49.12447" lon="6.75885">
        <ele>242.96</ele>
        <time>2024-03-05T14:57:28Z</time>
      </trkpt>
      <trkpt lat="49.12449" lon="6.7587">
        <ele>243.68</ele>
        <time>2024-03-05T14:57:36Z</time>
      </trkpt>
      <trkpt lat="49.12454" lon="6.75861">
        <ele>244.66</ele>
        <time>2024-03-05T14:57:44Z</time>
      </trkpt>
      <trkpt lat="49.12455" lon="6.75849">
        <ele>246.34</ele>
        <time>2024-03-05T14:57:53Z</time>
      </trkpt>
      <trkpt lat="49.12459" lon="6.75837">
        <ele>248.04</ele>
        <time>2024-03-05T14:58:03Z</time>
      </trkpt>
      <trkpt lat="49.12463" lon="6.75827">
        <ele>250.51</ele>
        <time>2024-03-05T14:58:15Z</time>
      </trkpt>
      <trkpt lat="49.12468" lon="6.75813">
        <ele>252.88</ele>
        <time>2024-03-05T14:58:27Z</time>
      </trkpt>
      <trkpt lat="49.12476" lon="6.75804">
        <ele>255.31</ele>
        <time>2024-03-05T14:58:38Z</time>
      </trkpt>
      <trkpt lat="49.12482" lon="6.75789">
        <ele>257.5</ele>
        <time>2024-03-05T14:58:48Z</time>
      </trkpt>
      <trkpt lat="49.12488" lon="6.75778">
        <ele>259.62</ele>
        <time>2024-03-05T14:58:57Z</time>
      </trkpt>
      <trkpt lat="49.1249" lon="6.75763">
        <ele>261.12</ele>
        <time>2024-03-05T14:59:05Z</time>
      </trkpt>
      <trkpt lat="49.12493" lon="6.75751">
        <ele>262.86</ele>
        <time>2024-03-05T14:59:15Z</time>
      </trkpt>
      <trkpt lat="49.12496" lon="6.75737">
        <ele>264.66</ele>
        <time>2024-03-05T14:59:24Z</time>
      </trkpt>
      <trkpt lat="49.12497" lon="6.7572">
        <ele>266.12</ele>
        <time>2024-03-05T14:59:32Z</time>
      </trkpt>
      <trkpt lat="49.12498" lon="6.75707">
        <ele>267.32</ele>
        <time>2024-03-05T14:59:40Z</time>
      </trkpt>
      <trkpt lat="49.12495" lon="6.75691">
        <ele>267.82</ele>
        <time>2024-03-05T14:59:48Z</time>
      </trkpt>
      <trkpt lat="49.12494" lon="6.75674">
        <ele>267.34</ele>
        <time>2024-03-05T14:59:56Z</time>
      </trkpt>
      <trkpt lat="49.12495" lon="6.75657">
        <ele>266.98</ele>
        <time>2024-03-05T15:00:03Z</time>
      </trkpt>
      <trkpt lat="49.12499" lon="6.75642">
        <ele>266.9</ele>
        <time>2024-03-05T15:00:10Z</time>
      </trkpt>
      <trkpt lat="49.12506" lon="6.75629">
        <ele>266.81</ele>
        <time>2024-03-05T15:00:17Z</time>
      </trkpt>
      <trkpt lat="49.12514" lon="6.75615">
        <ele>266.2</ele>
        <time>2024-03-05T15:00:24Z</time>
      </trkpt>
      <trkpt lat="49.12519" lon="6.75605">
        <ele>265.98</ele>
        <time>2024-03-05T15:00:30Z</time>
      </trkpt>
      <trkpt lat="49.12524" lon="6.75592">
        <ele>265.52</ele>
        <time>2024-03-05T15:00:37Z</time>
      </trkpt>
      <trkpt lat="49.12527" lon="6.75582">
        <ele>265.5</ele>
        <time>2024-03-05T15:00:44Z</time>
      </trkpt>
      <trkpt lat="49.12525" lon="6.75568">
        <ele>266.37</ele>
        <time>2024-03-05T15:00:52Z</time>
      </trkpt>
      <trkpt lat="49.12521" lon="6.75552">
        <ele>266.55</ele>
        <time>2024-03-05T15:00:59Z</time>
      </trkpt>
      <trkpt lat="49.1252" lon="6.7554">
        <ele>266.94</ele>
        <time>2024-03-05T15:01:06Z</time>
      </trkpt>
      <trkpt lat="49.12522" lon="6.75526">
        <ele>267.07</ele>
        <time>2024-03-05T15:01:13Z</time>
      </trkpt>
      <trkpt lat="49.12524" lon="6.7551">
        <ele>266.83</ele>
        <time>2024-03-05T15:01:20Z</time>
      </trkpt>
      <trkpt lat="49.1253" lon="6.75496">
        <ele>267.29</ele>
        <time>2024-03-05T15:01:27Z</time>
      </trkpt>
      <trkpt lat="49.12533" lon="6.75482">
        <ele>267.5</ele>
        <time>2024-03-05T15:01:34Z</time>
      </trkpt>
      <trkpt lat="49.12535" lon="6.75467">
        <ele>268</ele>
        <time>2024-03-05T15:01:41Z</time>
      </trkpt>
      <trkpt lat="49.12537" lon="6.75452">
        <ele>268.62</ele>
        <time>2024-03-05T15:01:48Z</time>
      </trkpt>
      <trkpt lat="49.12541" lon="6.75439">
        <ele>269.27</ele>
        <time>2024-03-05T15:01:55Z</time>
      </trkpt>
      <trkpt lat="49.12546" lon="6.75425">
        <ele>269.55</ele>
        <time>2024-03-05T15:02:02Z</time>
      </trkpt>
      <trkpt lat="49.1255" lon="6.75408">
        <ele>270.08</ele>
        <time>2024-03-05T15:02:09Z</time>
      </trkpt>
      <trkpt lat="49.12557" lon="6.75398">
        <ele>270.16</ele>
        <time>2024-03-05T15:02:15Z</time>
      </trkpt>
      <trkpt lat="49.12563" lon="6.75388">
        <ele>270.23</ele>
        <time>2024-03-05T15:02:21Z</time>
      </trkpt>
      <trkpt lat="49.12569" lon="6.75374">
        <ele>270.33</ele>
        <time>2024-03-05T15:02:28Z</time>
      </trkpt>
      <trkpt lat="49.12576" lon="6.75363">
        <ele>270.31</ele>
        <time>2024-03-05T15:02:35Z</time>
      </trkpt>
      <trkpt lat="49.12584" lon="6.7535">
        <ele>270.62</ele>
        <time>2024-03-05T15:02:42Z</time>
      </trkpt>
      <trkpt lat="49.1259" lon="6.75338">
        <ele>270.83</ele>
        <time>2024-03-05T15:02:49Z</time>
      </trkpt>
      <trkpt lat="49.12597" lon="6.75326">
        <ele>271.63</ele>
        <time>2024-03-05T15:02:56Z</time>
      </trkpt>
      <trkpt lat="49.12604" lon="6.75321">
        <ele>272.82</ele>
        <time>2024-03-05T15:03:03Z</time>
      </trkpt>
      <trkpt lat="49.12613" lon="6.75312">
        <ele>274.16</ele>
        <time>2024-03-05T15:03:11Z</time>
      </trkpt>
      <trkpt lat="49.12623" lon="6.75305">
        <ele>275.32</ele>
        <time>2024-03-05T15:03:18Z</time>
      </trkpt>
      <trkpt lat="49.12629" lon="6.75291">
        <ele>276.58</ele>
        <time>2024-03-05T15:03:25Z</time>
      </trkpt>
      <trkpt lat="49.12634" lon="6.75279">
        <ele>277.15</ele>
        <time>2024-03-05T15:03:32Z</time>
      </trkpt>
      <trkpt lat="49.12638" lon="6.75273">
        <ele>280.59</ele>
        <time>2024-03-05T15:03:47Z</time>
      </trkpt>
      <trkpt lat="49.12639" lon="6.75258">
        <ele>278.72</ele>
        <time>2024-03-05T15:03:57Z</time>
      </trkpt>
      <trkpt lat="49.12644" lon="6.75244">
        <ele>278.66</ele>
        <time>2024-03-05T15:04:04Z</time>
      </trkpt>
      <trkpt lat="49.1265" lon="6.75232">
        <ele>279.43</ele>
        <time>2024-03-05T15:04:11Z</time>
      </trkpt>
      <trkpt lat="49.12655" lon="6.75222">
        <ele>280.61</ele>
        <time>2024-03-05T15:04:19Z</time>
      </trkpt>
      <trkpt lat="49.12661" lon="6.75212">
        <ele>282.19</ele>
        <time>2024-03-05T15:04:27Z</time>
      </trkpt>
      <trkpt lat="49.12667" lon="6.75202">
        <ele>283.9</ele>
        <time>2024-03-05T15:04:36Z</time>
      </trkpt>
      <trkpt lat="49.12672" lon="6.75189">
        <ele>285.02</ele>
        <time>2024-03-05T15:04:44Z</time>
      </trkpt>
      <trkpt lat="49.12678" lon="6.75175">
        <ele>285.69</ele>
        <time>2024-03-05T15:04:52Z</time>
      </trkpt>
      <trkpt lat="49.12679" lon="6.75158">
        <ele>284.97</ele>
        <time>2024-03-05T15:05:00Z</time>
      </trkpt>
      <trkpt lat="49.12684" lon="6.75145">
        <ele>284.53</ele>
        <time>2024-03-05T15:05:07Z</time>
      </trkpt>
      <trkpt lat="49.1269" lon="6.75137">
        <ele>284.82</ele>
        <time>2024-03-05T15:05:14Z</time>
      </trkpt>
      <trkpt lat="49.12699" lon="6.75129">
        <ele>285.6</ele>
        <time>2024-03-05T15:05:22Z</time>
      </trkpt>
      <trkpt lat="49.12707" lon="6.75123">
        <ele>286.77</ele>
        <time>2024-03-05T15:05:30Z</time>
      </trkpt>
      <trkpt lat="49.12718" lon="6.75125">
        <ele>287.62</ele>
        <time>2024-03-05T15:05:38Z</time>
      </trkpt>
      <trkpt lat="49.12729" lon="6.75129">
        <ele>288.46</ele>
        <time>2024-03-05T15:05:45Z</time>
      </trkpt>
      <trkpt lat="49.12738" lon="6.75131">
        <ele>289.02</ele>
        <time>2024-03-05T15:05:52Z</time>
      </trkpt>
      <trkpt lat="49.12747" lon="6.75129">
        <ele>288.68</ele>
        <time>2024-03-05T15:05:59Z</time>
      </trkpt>
      <trkpt lat="49.12758" lon="6.75128">
        <ele>287.45</ele>
        <time>2024-03-05T15:06:07Z</time>
      </trkpt>
      <trkpt lat="49.12767" lon="6.75125">
        <ele>287</ele>
        <time>2024-03-05T15:06:14Z</time>
      </trkpt>
      <trkpt lat="49.12778" lon="6.75119">
        <ele>287.31</ele>
        <time>2024-03-05T15:06:21Z</time>
      </trkpt>
      <trkpt lat="49.12786" lon="6.75111">
        <ele>287.18</ele>
        <time>2024-03-05T15:06:28Z</time>
      </trkpt>
      <trkpt lat="49.12794" lon="6.75105">
        <ele>287.9</ele>
        <time>2024-03-05T15:06:35Z</time>
      </trkpt>
      <trkpt lat="49.12803" lon="6.75098">
        <ele>288.96</ele>
        <time>2024-03-05T15:06:42Z</time>
      </trkpt>
      <trkpt lat="49.12813" lon="6.75098">
        <ele>289.64</ele>
        <time>2024-03-05T15:06:49Z</time>
      </trkpt>
      <trkpt lat="49.12823" lon="6.75097">
        <ele>290.38</ele>
        <time>2024-03-05T15:06:56Z</time>
      </trkpt>
      <trkpt lat="49.12833" lon="6.75098">
        <ele>291.07</ele>
        <time>2024-03-05T15:07:03Z</time>
      </trkpt>
      <trkpt lat="49.12844" lon="6.75098">
        <ele>291.07</ele>
        <time>2024-03-05T15:07:10Z</time>
      </trkpt>
      <trkpt lat="49.12854" lon="6.75094">
        <ele>290.86</ele>
        <time>2024-03-05T15:07:16Z</time>
      </trkpt>
      <trkpt lat="49.12863" lon="6.75092">
        <ele>290.72</ele>
        <time>2024-03-05T15:07:22Z</time>
      </trkpt>
      <trkpt lat="49.12871" lon="6.75084">
        <ele>290.52</ele>
        <time>2024-03-05T15:07:29Z</time>
      </trkpt>
      <trkpt lat="49.12869" lon="6.75068">
        <ele>290.84</ele>
        <time>2024-03-05T15:07:36Z</time>
      </trkpt>
      <trkpt lat="49.12866" lon="6.75051">
        <ele>291.48</ele>
        <time>2024-03-05T15:07:43Z</time>
      </trkpt>
      <trkpt lat="49.12864" lon="6.75037">
        <ele>292.01</ele>
        <time>2024-03-05T15:07:50Z</time>
      </trkpt>
      <trkpt lat="49.12859" lon="6.75024">
        <ele>293.29</ele>
        <time>2024-03-05T15:07:57Z</time>
      </trkpt>
      <trkpt lat="49.12855" lon="6.75011">
        <ele>294.76</ele>
        <time>2024-03-05T15:08:05Z</time>
      </trkpt>
      <trkpt lat="49.12855" lon="6.74992">
        <ele>295.53</ele>
        <time>2024-03-05T15:08:13Z</time>
      </trkpt>
      <trkpt lat="49.12857" lon="6.74976">
        <ele>296.14</ele>
        <time>2024-03-05T15:08:20Z</time>
      </trkpt>
      <trkpt lat="49.12862" lon="6.74964">
        <ele>296.06</ele>
        <time>2024-03-05T15:08:27Z</time>
      </trkpt>
      <trkpt lat="49.12868" lon="6.74953">
        <ele>296.18</ele>
        <time>2024-03-05T15:08:34Z</time>
      </trkpt>
      <trkpt lat="49.12876" lon="6.74944">
        <ele>296.38</ele>
        <time>2024-03-05T15:08:41Z</time>
      </trkpt>
      <trkpt lat="49.12884" lon="6.74938">
        <ele>296.64</ele>
        <time>2024-03-05T15:08:48Z</time>
      </trkpt>
      <trkpt lat="49.12893" lon="6.74928">
        <ele>296.83</ele>
        <time>2024-03-05T15:08:55Z</time>
      </trkpt>
      <trkpt lat="49.12902" lon="6.7492">
        <ele>297.35</ele>
        <time>2024-03-05T15:09:02Z</time>
      </trkpt>
      <trkpt lat="49.1291" lon="6.74913">
        <ele>296.91</ele>
        <time>2024-03-05T15:09:09Z</time>
      </trkpt>
      <trkpt lat="49.12916" lon="6.74902">
        <ele>295.99</ele>
        <time>2024-03-05T15:09:16Z</time>
      </trkpt>
      <trkpt lat="49.12918" lon="6.74887">
        <ele>294.46</ele>
        <time>2024-03-05T15:09:23Z</time>
      </trkpt>
      <trkpt lat="49.12913" lon="6.74871">
        <ele>293.39</ele>
        <time>2024-03-05T15:09:30Z</time>
      </trkpt>
      <trkpt lat="49.12908" lon="6.7486">
        <ele>293.27</ele>
        <time>2024-03-05T15:09:37Z</time>
      </trkpt>
      <trkpt lat="49.12901" lon="6.74852">
        <ele>293.96</ele>
        <time>2024-03-05T15:09:44Z</time>
      </trkpt>
      <trkpt lat="49.12895" lon="6.74843">
        <ele>296.12</ele>
        <time>2024-03-05T15:09:55Z</time>
      </trkpt>
      <trkpt lat="49.12887" lon="6.74833">
        <ele>297.41</ele>
        <time>2024-03-05T15:10:04Z</time>
      </trkpt>
      <trkpt lat="49.12883" lon="6.74826">
        <ele>298.33</ele>
        <time>2024-03-05T15:11:26Z</time>
      </trkpt>
      <trkpt lat="49.12872" lon="6.74816">
        <ele>297.33</ele>
        <time>2024-03-05T15:11:36Z</time>
      </trkpt>
      <trkpt lat="49.12863" lon="6.74808">
        <ele>296.49</ele>
        <time>2024-03-05T15:11:43Z</time>
      </trkpt>
      <trkpt lat="49.12856" lon="6.74798">
        <ele>295.83</ele>
        <time>2024-03-05T15:11:50Z</time>
      </trkpt>
      <trkpt lat="49.12848" lon="6.74788">
        <ele>294.74</ele>
        <time>2024-03-05T15:11:57Z</time>
      </trkpt>
      <trkpt lat="49.12839" lon="6.7478">
        <ele>294.09</ele>
        <time>2024-03-05T15:12:04Z</time>
      </trkpt>
      <trkpt lat="49.12832" lon="6.74771">
        <ele>293.15</ele>
        <time>2024-03-05T15:12:10Z</time>
      </trkpt>
      <trkpt lat="49.12828" lon="6.74759">
        <ele>292.46</ele>
        <time>2024-03-05T15:12:16Z</time>
      </trkpt>
      <trkpt lat="49.12825" lon="6.74743">
        <ele>292.47</ele>
        <time>2024-03-05T15:12:23Z</time>
      </trkpt>
      <trkpt lat="49.12822" lon="6.74728">
        <ele>292.25</ele>
        <time>2024-03-05T15:12:30Z</time>
      </trkpt>
      <trkpt lat="49.1282" lon="6.74712">
        <ele>292.18</ele>
        <time>2024-03-05T15:12:37Z</time>
      </trkpt>
      <trkpt lat="49.12819" lon="6.74698">
        <ele>291.98</ele>
        <time>2024-03-05T15:12:43Z</time>
      </trkpt>
      <trkpt lat="49.12818" lon="6.74685">
        <ele>292.17</ele>
        <time>2024-03-05T15:12:49Z</time>
      </trkpt>
      <trkpt lat="49.12817" lon="6.74671">
        <ele>292.28</ele>
        <time>2024-03-05T15:12:55Z</time>
      </trkpt>
      <trkpt lat="49.12817" lon="6.74656">
        <ele>292.16</ele>
        <time>2024-03-05T15:13:02Z</time>
      </trkpt>
      <trkpt lat="49.12817" lon="6.74642">
        <ele>291.87</ele>
        <time>2024-03-05T15:13:08Z</time>
      </trkpt>
      <trkpt lat="49.12819" lon="6.74627">
        <ele>292.14</ele>
        <time>2024-03-05T15:13:15Z</time>
      </trkpt>
      <trkpt lat="49.12823" lon="6.74612">
        <ele>292.19</ele>
        <time>2024-03-05T15:13:22Z</time>
      </trkpt>
      <trkpt lat="49.12827" lon="6.74599">
        <ele>292.77</ele>
        <time>2024-03-05T15:13:29Z</time>
      </trkpt>
      <trkpt lat="49.12831" lon="6.74586">
        <ele>293.2</ele>
        <time>2024-03-05T15:13:36Z</time>
      </trkpt>
      <trkpt lat="49.12838" lon="6.74576">
        <ele>293.72</ele>
        <time>2024-03-05T15:13:43Z</time>
      </trkpt>
      <trkpt lat="49.12846" lon="6.74566">
        <ele>294.4</ele>
        <time>2024-03-05T15:13:51Z</time>
      </trkpt>
      <trkpt lat="49.12854" lon="6.74555">
        <ele>295.15</ele>
        <time>2024-03-05T15:13:58Z</time>
      </trkpt>
      <trkpt lat="49.12861" lon="6.74548">
        <ele>295.95</ele>
        <time>2024-03-05T15:14:05Z</time>
      </trkpt>
      <trkpt lat="49.12869" lon="6.74549">
        <ele>297.24</ele>
        <time>2024-03-05T15:14:13Z</time>
      </trkpt>
      <trkpt lat="49.12877" lon="6.74548">
        <ele>299.26</ele>
        <time>2024-03-05T15:14:23Z</time>
      </trkpt>
      <trkpt lat="49.12886" lon="6.74544">
        <ele>301.22</ele>
        <time>2024-03-05T15:14:33Z</time>
      </trkpt>
      <trkpt lat="49.12894" lon="6.74536">
        <ele>303.04</ele>
        <time>2024-03-05T15:14:42Z</time>
      </trkpt>
      <trkpt lat="49.12904" lon="6.74535">
        <ele>304.82</ele>
        <time>2024-03-05T15:14:52Z</time>
      </trkpt>
      <trkpt lat="49.12914" lon="6.7454">
        <ele>306.45</ele>
        <time>2024-03-05T15:15:01Z</time>
      </trkpt>
      <trkpt lat="49.12921" lon="6.7455">
        <ele>308.09</ele>
        <time>2024-03-05T15:15:10Z</time>
      </trkpt>
      <trkpt lat="49.12929" lon="6.7456">
        <ele>309.89</ele>
        <time>2024-03-05T15:15:20Z</time>
      </trkpt>
      <trkpt lat="49.12935" lon="6.7457">
        <ele>311.78</ele>
        <time>2024-03-05T15:15:30Z</time>
      </trkpt>
      <trkpt lat="49.12943" lon="6.7458">
        <ele>313.35</ele>
        <time>2024-03-05T15:15:40Z</time>
      </trkpt>
      <trkpt lat="49.1295" lon="6.7459">
        <ele>315.11</ele>
        <time>2024-03-05T15:15:50Z</time>
      </trkpt>
      <trkpt lat="49.12956" lon="6.746">
        <ele>316.87</ele>
        <time>2024-03-05T15:16:00Z</time>
      </trkpt>
      <trkpt lat="49.12963" lon="6.74608">
        <ele>318.64</ele>
        <time>2024-03-05T15:16:10Z</time>
      </trkpt>
      <trkpt lat="49.1297" lon="6.74617">
        <ele>320.72</ele>
        <time>2024-03-05T15:16:21Z</time>
      </trkpt>
      <trkpt lat="49.12977" lon="6.74627">
        <ele>323.4</ele>
        <time>2024-03-05T15:16:34Z</time>
      </trkpt>
      <trkpt lat="49.12982" lon="6.74637">
        <ele>326.01</ele>
        <time>2024-03-05T15:16:47Z</time>
      </trkpt>
      <trkpt lat="49.12988" lon="6.74647">
        <ele>327.97</ele>
        <time>2024-03-05T15:17:00Z</time>
      </trkpt>
      <trkpt lat="49.12996" lon="6.74656">
        <ele>330.73</ele>
        <time>2024-03-05T15:17:12Z</time>
      </trkpt>
      <trkpt lat="49.13005" lon="6.74664">
        <ele>332.74</ele>
        <time>2024-03-05T15:17:23Z</time>
      </trkpt>
      <trkpt lat="49.13011" lon="6.74676">
        <ele>333.99</ele>
        <time>2024-03-05T15:17:34Z</time>
      </trkpt>
      <trkpt lat="49.13019" lon="6.74685">
        <ele>335.4</ele>
        <time>2024-03-05T15:17:44Z</time>
      </trkpt>
      <trkpt lat="49.13028" lon="6.74691">
        <ele>336.77</ele>
        <time>2024-03-05T15:17:54Z</time>
      </trkpt>
      <trkpt lat="49.13036" lon="6.74697">
        <ele>338.13</ele>
        <time>2024-03-05T15:18:03Z</time>
      </trkpt>
      <trkpt lat="49.13044" lon="6.74705">
        <ele>339.77</ele>
        <time>2024-03-05T15:18:14Z</time>
      </trkpt>
      <trkpt lat="49.13053" lon="6.74709">
        <ele>341.33</ele>
        <time>2024-03-05T15:18:25Z</time>
      </trkpt>
      <trkpt lat="49.13063" lon="6.74716">
        <ele>342.84</ele>
        <time>2024-03-05T15:18:36Z</time>
      </trkpt>
      <trkpt lat="49.13072" lon="6.74708">
        <ele>343.73</ele>
        <time>2024-03-05T15:18:45Z</time>
      </trkpt>
      <trkpt lat="49.13075" lon="6.74694">
        <ele>344.34</ele>
        <time>2024-03-05T15:18:53Z</time>
      </trkpt>
      <trkpt lat="49.13077" lon="6.74678">
        <ele>344.8</ele>
        <time>2024-03-05T15:19:01Z</time>
      </trkpt>
      <trkpt lat="49.13079" lon="6.74665">
        <ele>345.24</ele>
        <time>2024-03-05T15:19:09Z</time>
      </trkpt>
      <trkpt lat="49.13084" lon="6.74649">
        <ele>345.47</ele>
        <time>2024-03-05T15:19:17Z</time>
      </trkpt>
      <trkpt lat="49.13087" lon="6.74635">
        <ele>345.96</ele>
        <time>2024-03-05T15:19:25Z</time>
      </trkpt>
      <trkpt lat="49.13089" lon="6.74619">
        <ele>346.21</ele>
        <time>2024-03-05T15:19:33Z</time>
      </trkpt>
      <trkpt lat="49.13093" lon="6.74603">
        <ele>346.87</ele>
        <time>2024-03-05T15:19:41Z</time>
      </trkpt>
      <trkpt lat="49.13097" lon="6.7459">
        <ele>348.08</ele>
        <time>2024-03-05T15:19:49Z</time>
      </trkpt>
      <trkpt lat="49.13104" lon="6.7458">
        <ele>348.93</ele>
        <time>2024-03-05T15:19:57Z</time>
      </trkpt>
      <trkpt lat="49.13109" lon="6.74568">
        <ele>349.96</ele>
        <time>2024-03-05T15:20:05Z</time>
      </trkpt>
      <trkpt lat="49.13116" lon="6.74557">
        <ele>351.03</ele>
        <time>2024-03-05T15:20:13Z</time>
      </trkpt>
      <trkpt lat="49.13125" lon="6.74549">
        <ele>351.79</ele>
        <time>2024-03-05T15:20:21Z</time>
      </trkpt>
      <trkpt lat="49.13132" lon="6.74541">
        <ele>352.37</ele>
        <time>2024-03-05T15:20:29Z</time>
      </trkpt>
      <trkpt lat="49.1314" lon="6.74534">
        <ele>352.89</ele>
        <time>2024-03-05T15:20:38Z</time>
      </trkpt>
      <trkpt lat="49.13147" lon="6.74523">
        <ele>353.28</ele>
        <time>2024-03-05T15:20:47Z</time>
      </trkpt>
      <trkpt lat="49.13156" lon="6.74512">
        <ele>353.67</ele>
        <time>2024-03-05T15:20:56Z</time>
      </trkpt>
      <trkpt lat="49.13166" lon="6.74506">
        <ele>353.8</ele>
        <time>2024-03-05T15:21:04Z</time>
      </trkpt>
      <trkpt lat="49.13175" lon="6.74498">
        <ele>354.27</ele>
        <time>2024-03-05T15:21:12Z</time>
      </trkpt>
      <trkpt lat="49.13183" lon="6.74486">
        <ele>354.37</ele>
        <time>2024-03-05T15:21:19Z</time>
      </trkpt>
      <trkpt lat="49.13191" lon="6.74479">
        <ele>354.42</ele>
        <time>2024-03-05T15:21:26Z</time>
      </trkpt>
      <trkpt lat="49.132" lon="6.74474">
        <ele>354.57</ele>
        <time>2024-03-05T15:21:33Z</time>
      </trkpt>
      <trkpt lat="49.13204" lon="6.7446">
        <ele>354.39</ele>
        <time>2024-03-05T15:21:40Z</time>
      </trkpt>
      <trkpt lat="49.13207" lon="6.74445">
        <ele>354.19</ele>
        <time>2024-03-05T15:21:48Z</time>
      </trkpt>
      <trkpt lat="49.1321" lon="6.74429">
        <ele>353.84</ele>
        <time>2024-03-05T15:21:55Z</time>
      </trkpt>
      <trkpt lat="49.1321" lon="6.74415">
        <ele>353.17</ele>
        <time>2024-03-05T15:22:02Z</time>
      </trkpt>
      <trkpt lat="49.13209" lon="6.74401">
        <ele>352.76</ele>
        <time>2024-03-05T15:22:09Z</time>
      </trkpt>
      <trkpt lat="49.13207" lon="6.74383">
        <ele>352.31</ele>
        <time>2024-03-05T15:22:17Z</time>
      </trkpt>
      <trkpt lat="49.13202" lon="6.7437">
        <ele>351.89</ele>
        <time>2024-03-05T15:22:25Z</time>
      </trkpt>
      <trkpt lat="49.13196" lon="6.74355">
        <ele>351.7</ele>
        <time>2024-03-05T15:22:33Z</time>
      </trkpt>
      <trkpt lat="49.13193" lon="6.74343">
        <ele>351.38</ele>
        <time>2024-03-05T15:22:40Z</time>
      </trkpt>
      <trkpt lat="49.13188" lon="6.74327">
        <ele>351.08</ele>
        <time>2024-03-05T15:22:48Z</time>
      </trkpt>
      <trkpt lat="49.13184" lon="6.74314">
        <ele>350.62</ele>
        <time>2024-03-05T15:22:55Z</time>
      </trkpt>
      <trkpt lat="49.13181" lon="6.74298">
        <ele>350.15</ele>
        <time>2024-03-05T15:23:02Z</time>
      </trkpt>
      <trkpt lat="49.13178" lon="6.74285">
        <ele>349.63</ele>
        <time>2024-03-05T15:23:09Z</time>
      </trkpt>
      <trkpt lat="49.13174" lon="6.7427">
        <ele>349.49</ele>
        <time>2024-03-05T15:23:16Z</time>
      </trkpt>
      <trkpt lat="49.13171" lon="6.74257">
        <ele>349.23</ele>
        <time>2024-03-05T15:23:23Z</time>
      </trkpt>
      <trkpt lat="49.13166" lon="6.74244">
        <ele>349.07</ele>
        <time>2024-03-05T15:23:30Z</time>
      </trkpt>
      <trkpt lat="49.13162" lon="6.7423">
        <ele>348.52</ele>
        <time>2024-03-05T15:23:37Z</time>
      </trkpt>
      <trkpt lat="49.13159" lon="6.74217">
        <ele>348.48</ele>
        <time>2024-03-05T15:23:44Z</time>
      </trkpt>
      <trkpt lat="49.13157" lon="6.74201">
        <ele>348.49</ele>
        <time>2024-03-05T15:23:51Z</time>
      </trkpt>
      <trkpt lat="49.13157" lon="6.74184">
        <ele>348.21</ele>
        <time>2024-03-05T15:23:58Z</time>
      </trkpt>
      <trkpt lat="49.13157" lon="6.74169">
        <ele>347.9</ele>
        <time>2024-03-05T15:24:05Z</time>
      </trkpt>
      <trkpt lat="49.13158" lon="6.74154">
        <ele>347.14</ele>
        <time>2024-03-05T15:24:12Z</time>
      </trkpt>
      <trkpt lat="49.13158" lon="6.74137">
        <ele>347.16</ele>
        <time>2024-03-05T15:24:19Z</time>
      </trkpt>
      <trkpt lat="49.1316" lon="6.74123">
        <ele>347.28</ele>
        <time>2024-03-05T15:24:26Z</time>
      </trkpt>
      <trkpt lat="49.1316" lon="6.74108">
        <ele>347.14</ele>
        <time>2024-03-05T15:24:33Z</time>
      </trkpt>
      <trkpt lat="49.13161" lon="6.74091">
        <ele>347.53</ele>
        <time>2024-03-05T15:24:40Z</time>
      </trkpt>
      <trkpt lat="49.13162" lon="6.74078">
        <ele>346.84</ele>
        <time>2024-03-05T15:24:47Z</time>
      </trkpt>
      <trkpt lat="49.13161" lon="6.74062">
        <ele>346.57</ele>
        <time>2024-03-05T15:24:54Z</time>
      </trkpt>
      <trkpt lat="49.13162" lon="6.74048">
        <ele>346.41</ele>
        <time>2024-03-05T15:25:01Z</time>
      </trkpt>
      <trkpt lat="49.13161" lon="6.74032">
        <ele>346.25</ele>
        <time>2024-03-05T15:25:08Z</time>
      </trkpt>
      <trkpt lat="49.13159" lon="6.74018">
        <ele>345.91</ele>
        <time>2024-03-05T15:25:15Z</time>
      </trkpt>
      <trkpt lat="49.13156" lon="6.74005">
        <ele>345.55</ele>
        <time>2024-03-05T15:25:22Z</time>
      </trkpt>
      <trkpt lat="49.13151" lon="6.7399">
        <ele>345.57</ele>
        <time>2024-03-05T15:25:29Z</time>
      </trkpt>
      <trkpt lat="49.13147" lon="6.73975">
        <ele>345.55</ele>
        <time>2024-03-05T15:25:36Z</time>
      </trkpt>
      <trkpt lat="49.13144" lon="6.73963">
        <ele>345.12</ele>
        <time>2024-03-05T15:25:43Z</time>
      </trkpt>
      <trkpt lat="49.13138" lon="6.73949">
        <ele>345.07</ele>
        <time>2024-03-05T15:25:50Z</time>
      </trkpt>
      <trkpt lat="49.13133" lon="6.73937">
        <ele>344.93</ele>
        <time>2024-03-05T15:25:57Z</time>
      </trkpt>
      <trkpt lat="49.13128" lon="6.73925">
        <ele>344.75</ele>
        <time>2024-03-05T15:26:04Z</time>
      </trkpt>
      <trkpt lat="49.1312" lon="6.73914">
        <ele>344.45</ele>
        <time>2024-03-05T15:26:12Z</time>
      </trkpt>
      <trkpt lat="49.13113" lon="6.73901">
        <ele>344.33</ele>
        <time>2024-03-05T15:26:19Z</time>
      </trkpt>
      <trkpt lat="49.13105" lon="6.7389">
        <ele>344.1</ele>
        <time>2024-03-05T15:26:26Z</time>
      </trkpt>
      <trkpt lat="49.13098" lon="6.73879">
        <ele>344.32</ele>
        <time>2024-03-05T15:26:33Z</time>
      </trkpt>
      <trkpt lat="49.13091" lon="6.73869">
        <ele>344.19</ele>
        <time>2024-03-05T15:26:40Z</time>
      </trkpt>
      <trkpt lat="49.13084" lon="6.73858">
        <ele>343.57</ele>
        <time>2024-03-05T15:26:47Z</time>
      </trkpt>
      <trkpt lat="49.13076" lon="6.73849">
        <ele>343.82</ele>
        <time>2024-03-05T15:26:54Z</time>
      </trkpt>
      <trkpt lat="49.13068" lon="6.73842">
        <ele>343.5</ele>
        <time>2024-03-05T15:27:01Z</time>
      </trkpt>
      <trkpt lat="49.13058" lon="6.73834">
        <ele>343.22</ele>
        <time>2024-03-05T15:27:08Z</time>
      </trkpt>
      <trkpt lat="49.13049" lon="6.73827">
        <ele>343.11</ele>
        <time>2024-03-05T15:27:15Z</time>
      </trkpt>
      <trkpt lat="49.1304" lon="6.73819">
        <ele>343.15</ele>
        <time>2024-03-05T15:27:22Z</time>
      </trkpt>
      <trkpt lat="49.13031" lon="6.73812">
        <ele>342.87</ele>
        <time>2024-03-05T15:27:29Z</time>
      </trkpt>
      <trkpt lat="49.13024" lon="6.73803">
        <ele>342.84</ele>
        <time>2024-03-05T15:27:36Z</time>
      </trkpt>
      <trkpt lat="49.13016" lon="6.73793">
        <ele>342.11</ele>
        <time>2024-03-05T15:27:43Z</time>
      </trkpt>
      <trkpt lat="49.13007" lon="6.73782">
        <ele>341.78</ele>
        <time>2024-03-05T15:27:50Z</time>
      </trkpt>
      <trkpt lat="49.12999" lon="6.73772">
        <ele>341.85</ele>
        <time>2024-03-05T15:27:57Z</time>
      </trkpt>
      <trkpt lat="49.12992" lon="6.7376">
        <ele>341.56</ele>
        <time>2024-03-05T15:28:04Z</time>
      </trkpt>
      <trkpt lat="49.12985" lon="6.73748">
        <ele>341.31</ele>
        <time>2024-03-05T15:28:11Z</time>
      </trkpt>
      <trkpt lat="49.12979" lon="6.73736">
        <ele>340.71</ele>
        <time>2024-03-05T15:28:18Z</time>
      </trkpt>
      <trkpt lat="49.12974" lon="6.73724">
        <ele>340.22</ele>
        <time>2024-03-05T15:28:25Z</time>
      </trkpt>
      <trkpt lat="49.12967" lon="6.73711">
        <ele>339.99</ele>
        <time>2024-03-05T15:28:32Z</time>
      </trkpt>
      <trkpt lat="49.12961" lon="6.73699">
        <ele>339.41</ele>
        <time>2024-03-05T15:28:39Z</time>
      </trkpt>
      <trkpt lat="49.12955" lon="6.73686">
        <ele>338.88</ele>
        <time>2024-03-05T15:28:47Z</time>
      </trkpt>
      <trkpt lat="49.12947" lon="6.73673">
        <ele>338.18</ele>
        <time>2024-03-05T15:28:54Z</time>
      </trkpt>
      <trkpt lat="49.12941" lon="6.73661">
        <ele>337.82</ele>
        <time>2024-03-05T15:29:01Z</time>
      </trkpt>
      <trkpt lat="49.12935" lon="6.73648">
        <ele>337.37</ele>
        <time>2024-03-05T15:29:08Z</time>
      </trkpt>
      <trkpt lat="49.12927" lon="6.73637">
        <ele>336.81</ele>
        <time>2024-03-05T15:29:15Z</time>
      </trkpt>
      <trkpt lat="49.12921" lon="6.73624">
        <ele>336.44</ele>
        <time>2024-03-05T15:29:22Z</time>
      </trkpt>
      <trkpt lat="49.12914" lon="6.73612">
        <ele>336.12</ele>
        <time>2024-03-05T15:29:29Z</time>
      </trkpt>
      <trkpt lat="49.12907" lon="6.73601">
        <ele>335.29</ele>
        <time>2024-03-05T15:29:36Z</time>
      </trkpt>
      <trkpt lat="49.12901" lon="6.7359">
        <ele>334.58</ele>
        <time>2024-03-05T15:29:43Z</time>
      </trkpt>
      <trkpt lat="49.12894" lon="6.73577">
        <ele>334.01</ele>
        <time>2024-03-05T15:29:50Z</time>
      </trkpt>
      <trkpt lat="49.12888" lon="6.73566">
        <ele>333.62</ele>
        <time>2024-03-05T15:29:57Z</time>
      </trkpt>
      <trkpt lat="49.1288" lon="6.73558">
        <ele>333.4</ele>
        <time>2024-03-05T15:30:04Z</time>
      </trkpt>
      <trkpt lat="49.12872" lon="6.73548">
        <ele>332.67</ele>
        <time>2024-03-05T15:30:11Z</time>
      </trkpt>
      <trkpt lat="49.12864" lon="6.7354">
        <ele>332.28</ele>
        <time>2024-03-05T15:30:18Z</time>
      </trkpt>
      <trkpt lat="49.12853" lon="6.73535">
        <ele>331.74</ele>
        <time>2024-03-05T15:30:25Z</time>
      </trkpt>
      <trkpt lat="49.12843" lon="6.73531">
        <ele>331.25</ele>
        <time>2024-03-05T15:30:32Z</time>
      </trkpt>
      <trkpt lat="49.12832" lon="6.73531">
        <ele>330.72</ele>
        <time>2024-03-05T15:30:39Z</time>
      </trkpt>
      <trkpt lat="49.12822" lon="6.73533">
        <ele>330.26</ele>
        <time>2024-03-05T15:30:46Z</time>
      </trkpt>
      <trkpt lat="49.12814" lon="6.73543">
        <ele>329.71</ele>
        <time>2024-03-05T15:30:53Z</time>
      </trkpt>
      <trkpt lat="49.12809" lon="6.73558">
        <ele>329.03</ele>
        <time>2024-03-05T15:31:00Z</time>
      </trkpt>
      <trkpt lat="49.12805" lon="6.73571">
        <ele>328.66</ele>
        <time>2024-03-05T15:31:07Z</time>
      </trkpt>
      <trkpt lat="49.12802" lon="6.73584">
        <ele>328.25</ele>
        <time>2024-03-05T15:31:14Z</time>
      </trkpt>
      <trkpt lat="49.12798" lon="6.73599">
        <ele>327.85</ele>
        <time>2024-03-05T15:31:21Z</time>
      </trkpt>
      <trkpt lat="49.12795" lon="6.73616">
        <ele>327.58</ele>
        <time>2024-03-05T15:31:28Z</time>
      </trkpt>
      <trkpt lat="49.12791" lon="6.73631">
        <ele>327.04</ele>
        <time>2024-03-05T15:31:35Z</time>
      </trkpt>
      <trkpt lat="49.12787" lon="6.73646">
        <ele>326.63</ele>
        <time>2024-03-05T15:31:42Z</time>
      </trkpt>
      <trkpt lat="49.1278" lon="6.73657">
        <ele>326.33</ele>
        <time>2024-03-05T15:31:49Z</time>
      </trkpt>
      <trkpt lat="49.12772" lon="6.7366">
        <ele>325.99</ele>
        <time>2024-03-05T15:31:56Z</time>
      </trkpt>
      <trkpt lat="49.1276" lon="6.73661">
        <ele>325.54</ele>
        <time>2024-03-05T15:32:03Z</time>
      </trkpt>
      <trkpt lat="49.1275" lon="6.73658">
        <ele>325.23</ele>
        <time>2024-03-05T15:32:10Z</time>
      </trkpt>
      <trkpt lat="49.1274" lon="6.73653">
        <ele>324.96</ele>
        <time>2024-03-05T15:32:17Z</time>
      </trkpt>
      <trkpt lat="49.12731" lon="6.73648">
        <ele>324.68</ele>
        <time>2024-03-05T15:32:24Z</time>
      </trkpt>
      <trkpt lat="49.12723" lon="6.73639">
        <ele>324.45</ele>
        <time>2024-03-05T15:32:31Z</time>
      </trkpt>
      <trkpt lat="49.12715" lon="6.73629">
        <ele>324</ele>
        <time>2024-03-05T15:32:38Z</time>
      </trkpt>
      <trkpt lat="49.12708" lon="6.73617">
        <ele>323.59</ele>
        <time>2024-03-05T15:32:45Z</time>
      </trkpt>
      <trkpt lat="49.127" lon="6.73606">
        <ele>323.46</ele>
        <time>2024-03-05T15:32:52Z</time>
      </trkpt>
      <trkpt lat="49.12693" lon="6.73594">
        <ele>322.89</ele>
        <time>2024-03-05T15:32:59Z</time>
      </trkpt>
      <trkpt lat="49.12686" lon="6.73585">
        <ele>322.39</ele>
        <time>2024-03-05T15:33:05Z</time>
      </trkpt>
      <trkpt lat="49.1268" lon="6.73575">
        <ele>321.77</ele>
        <time>2024-03-05T15:33:11Z</time>
      </trkpt>
      <trkpt lat="49.12673" lon="6.73563">
        <ele>321.45</ele>
        <time>2024-03-05T15:33:18Z</time>
      </trkpt>
      <trkpt lat="49.12666" lon="6.73551">
        <ele>321.09</ele>
        <time>2024-03-05T15:33:25Z</time>
      </trkpt>
      <trkpt lat="49.12658" lon="6.73541">
        <ele>320.54</ele>
        <time>2024-03-05T15:33:32Z</time>
      </trkpt>
      <trkpt lat="49.12653" lon="6.73534">
        <ele>320.16</ele>
        <time>2024-03-05T15:33:40Z</time>
      </trkpt>
      <trkpt lat="49.12646" lon="6.73523">
        <ele>319.31</ele>
        <time>2024-03-05T15:33:52Z</time>
      </trkpt>
      <trkpt lat="49.12637" lon="6.73509">
        <ele>318.64</ele>
        <time>2024-03-05T15:34:01Z</time>
      </trkpt>
      <trkpt lat="49.12631" lon="6.73497">
        <ele>318.18</ele>
        <time>2024-03-05T15:34:09Z</time>
      </trkpt>
      <trkpt lat="49.12622" lon="6.73487">
        <ele>317.49</ele>
        <time>2024-03-05T15:34:16Z</time>
      </trkpt>
      <trkpt lat="49.12612" lon="6.73481">
        <ele>316.71</ele>
        <time>2024-03-05T15:34:23Z</time>
      </trkpt>
      <trkpt lat="49.12602" lon="6.73479">
        <ele>316.44</ele>
        <time>2024-03-05T15:34:30Z</time>
      </trkpt>
      <trkpt lat="49.12592" lon="6.73481">
        <ele>315.6</ele>
        <time>2024-03-05T15:34:37Z</time>
      </trkpt>
      <trkpt lat="49.12582" lon="6.73489">
        <ele>315.21</ele>
        <time>2024-03-05T15:34:44Z</time>
      </trkpt>
      <trkpt lat="49.12576" lon="6.73497">
        <ele>314.55</ele>
        <time>2024-03-05T15:34:51Z</time>
      </trkpt>
      <trkpt lat="49.12569" lon="6.73509">
        <ele>314.13</ele>
        <time>2024-03-05T15:34:58Z</time>
      </trkpt>
      <trkpt lat="49.12562" lon="6.73522">
        <ele>313.81</ele>
        <time>2024-03-05T15:35:05Z</time>
      </trkpt>
      <trkpt lat="49.12554" lon="6.7353">
        <ele>313.44</ele>
        <time>2024-03-05T15:35:12Z</time>
      </trkpt>
      <trkpt lat="49.12543" lon="6.73536">
        <ele>312.82</ele>
        <time>2024-03-05T15:35:19Z</time>
      </trkpt>
      <trkpt lat="49.12533" lon="6.7353">
        <ele>312.35</ele>
        <time>2024-03-05T15:35:26Z</time>
      </trkpt>
      <trkpt lat="49.12524" lon="6.73522">
        <ele>311.81</ele>
        <time>2024-03-05T15:35:33Z</time>
      </trkpt>
      <trkpt lat="49.12517" lon="6.7351">
        <ele>311.42</ele>
        <time>2024-03-05T15:35:40Z</time>
      </trkpt>
      <trkpt lat="49.1251" lon="6.735">
        <ele>310.93</ele>
        <time>2024-03-05T15:35:47Z</time>
      </trkpt>
      <trkpt lat="49.12503" lon="6.73488">
        <ele>310.75</ele>
        <time>2024-03-05T15:35:54Z</time>
      </trkpt>
      <trkpt lat="49.12495" lon="6.73477">
        <ele>310.24</ele>
        <time>2024-03-05T15:36:01Z</time>
      </trkpt>
      <trkpt lat="49.12487" lon="6.73467">
        <ele>309.85</ele>
        <time>2024-03-05T15:36:08Z</time>
      </trkpt>
      <trkpt lat="49.12479" lon="6.73459">
        <ele>309.23</ele>
        <time>2024-03-05T15:36:15Z</time>
      </trkpt>
      <trkpt lat="49.12469" lon="6.7345">
        <ele>308.72</ele>
        <time>2024-03-05T15:36:22Z</time>
      </trkpt>
      <trkpt lat="49.1246" lon="6.73442">
        <ele>308.43</ele>
        <time>2024-03-05T15:36:28Z</time>
      </trkpt>
      <trkpt lat="49.12452" lon="6.73436">
        <ele>307.79</ele>
        <time>2024-03-05T15:36:34Z</time>
      </trkpt>
      <trkpt lat="49.12444" lon="6.73432">
        <ele>307.25</ele>
        <time>2024-03-05T15:36:41Z</time>
      </trkpt>
      <trkpt lat="49.12434" lon="6.73423">
        <ele>306.55</ele>
        <time>2024-03-05T15:36:48Z</time>
      </trkpt>
      <trkpt lat="49.12425" lon="6.73417">
        <ele>306.01</ele>
        <time>2024-03-05T15:36:55Z</time>
      </trkpt>
      <trkpt lat="49.12415" lon="6.73413">
        <ele>305.31</ele>
        <time>2024-03-05T15:37:02Z</time>
      </trkpt>
      <trkpt lat="49.12405" lon="6.73408">
        <ele>304.7</ele>
        <time>2024-03-05T15:37:09Z</time>
      </trkpt>
      <trkpt lat="49.12394" lon="6.73405">
        <ele>304</ele>
        <time>2024-03-05T15:37:16Z</time>
      </trkpt>
      <trkpt lat="49.12385" lon="6.734">
        <ele>303.58</ele>
        <time>2024-03-05T15:37:23Z</time>
      </trkpt>
      <trkpt lat="49.12375" lon="6.73396">
        <ele>302.79</ele>
        <time>2024-03-05T15:37:30Z</time>
      </trkpt>
      <trkpt lat="49.12365" lon="6.73393">
        <ele>302.47</ele>
        <time>2024-03-05T15:37:37Z</time>
      </trkpt>
      <trkpt lat="49.12354" lon="6.7339">
        <ele>301.71</ele>
        <time>2024-03-05T15:37:44Z</time>
      </trkpt>
      <trkpt lat="49.12346" lon="6.73394">
        <ele>301.5</ele>
        <time>2024-03-05T15:37:51Z</time>
      </trkpt>
      <trkpt lat="49.12338" lon="6.73393">
        <ele>301.33</ele>
        <time>2024-03-05T15:37:58Z</time>
      </trkpt>
      <trkpt lat="49.12335" lon="6.73389">
        <ele>301.01</ele>
        <time>2024-03-05T15:38:06Z</time>
      </trkpt>
      <trkpt lat="49.12339" lon="6.73403">
        <ele>301.22</ele>
        <time>2024-03-05T15:38:15Z</time>
      </trkpt>
      <trkpt lat="49.12345" lon="6.73418">
        <ele>301.82</ele>
        <time>2024-03-05T15:38:23Z</time>
      </trkpt>
      <trkpt lat="49.1235" lon="6.73431">
        <ele>302.57</ele>
        <time>2024-03-05T15:38:31Z</time>
      </trkpt>
      <trkpt lat="49.12355" lon="6.73443">
        <ele>303.48</ele>
        <time>2024-03-05T15:38:39Z</time>
      </trkpt>
      <trkpt lat="49.12358" lon="6.73456">
        <ele>304.69</ele>
        <time>2024-03-05T15:38:47Z</time>
      </trkpt>
      <trkpt lat="49.12362" lon="6.73468">
        <ele>305.86</ele>
        <time>2024-03-05T15:38:55Z</time>
      </trkpt>
      <trkpt lat="49.12366" lon="6.7348">
        <ele>307.35</ele>
        <time>2024-03-05T15:39:04Z</time>
      </trkpt>
      <trkpt lat="49.12373" lon="6.73493">
        <ele>308.64</ele>
        <time>2024-03-05T15:39:13Z</time>
      </trkpt>
      <trkpt lat="49.12376" lon="6.73507">
        <ele>310.06</ele>
        <time>2024-03-05T15:39:22Z</time>
      </trkpt>
      <trkpt lat="49.12379" lon="6.73523">
        <ele>310.9</ele>
        <time>2024-03-05T15:39:31Z</time>
      </trkpt>
      <trkpt lat="49.12383" lon="6.73537">
        <ele>311.96</ele>
        <time>2024-03-05T15:39:39Z</time>
      </trkpt>
      <trkpt lat="49.12387" lon="6.73552">
        <ele>312.49</ele>
        <time>2024-03-05T15:39:47Z</time>
      </trkpt>
      <trkpt lat="49.1239" lon="6.73566">
        <ele>312.99</ele>
        <time>2024-03-05T15:39:55Z</time>
      </trkpt>
      <trkpt lat="49.12394" lon="6.73582">
        <ele>313.16</ele>
        <time>2024-03-05T15:40:03Z</time>
      </trkpt>
      <trkpt lat="49.124" lon="6.73595">
        <ele>313.9</ele>
        <time>2024-03-05T15:40:10Z</time>
      </trkpt>
      <trkpt lat="49.12403" lon="6.73609">
        <ele>314.4</ele>
        <time>2024-03-05T15:40:18Z</time>
      </trkpt>
      <trkpt lat="49.12407" lon="6.73623">
        <ele>314.61</ele>
        <time>2024-03-05T15:40:26Z</time>
      </trkpt>
      <trkpt lat="49.12411" lon="6.73639">
        <ele>314.77</ele>
        <time>2024-03-05T15:40:33Z</time>
      </trkpt>
      <trkpt lat="49.12416" lon="6.73654">
        <ele>314.9</ele>
        <time>2024-03-05T15:40:40Z</time>
      </trkpt>
      <trkpt lat="49.12421" lon="6.73666">
        <ele>314.89</ele>
        <time>2024-03-05T15:40:47Z</time>
      </trkpt>
      <trkpt lat="49.12425" lon="6.73677">
        <ele>315.02</ele>
        <time>2024-03-05T15:40:54Z</time>
      </trkpt>
      <trkpt lat="49.12427" lon="6.7369">
        <ele>314.77</ele>
        <time>2024-03-05T15:41:02Z</time>
      </trkpt>
      <trkpt lat="49.12432" lon="6.73695">
        <ele>314.55</ele>
        <time>2024-03-05T15:42:49Z</time>
      </trkpt>
      <trkpt lat="49.1244" lon="6.73706">
        <ele>314.5</ele>
        <time>2024-03-05T15:42:58Z</time>
      </trkpt>
      <trkpt lat="49.12446" lon="6.7372">
        <ele>313.43</ele>
        <time>2024-03-05T15:43:06Z</time>
      </trkpt>
      <trkpt lat="49.12451" lon="6.73732">
        <ele>312.8</ele>
        <time>2024-03-05T15:43:14Z</time>
      </trkpt>
      <trkpt lat="49.12456" lon="6.73744">
        <ele>311.2</ele>
        <time>2024-03-05T15:43:23Z</time>
      </trkpt>
      <trkpt lat="49.12457" lon="6.7376">
        <ele>309.62</ele>
        <time>2024-03-05T15:43:32Z</time>
      </trkpt>
      <trkpt lat="49.12459" lon="6.73779">
        <ele>306.5</ele>
        <time>2024-03-05T15:44:11Z</time>
      </trkpt>
      <trkpt lat="49.1246" lon="6.73795">
        <ele>305.32</ele>
        <time>2024-03-05T15:44:21Z</time>
      </trkpt>
      <trkpt lat="49.12463" lon="6.73813">
        <ele>303.41</ele>
        <time>2024-03-05T15:44:33Z</time>
      </trkpt>
      <trkpt lat="49.12465" lon="6.73828">
        <ele>302.21</ele>
        <time>2024-03-05T15:44:41Z</time>
      </trkpt>
      <trkpt lat="49.12472" lon="6.73842">
        <ele>299.66</ele>
        <time>2024-03-05T15:44:52Z</time>
      </trkpt>
      <trkpt lat="49.12478" lon="6.73853">
        <ele>298.33</ele>
        <time>2024-03-05T15:45:01Z</time>
      </trkpt>
      <trkpt lat="49.12484" lon="6.73865">
        <ele>296.27</ele>
        <time>2024-03-05T15:45:10Z</time>
      </trkpt>
      <trkpt lat="49.12493" lon="6.73873">
        <ele>294.58</ele>
        <time>2024-03-05T15:45:19Z</time>
      </trkpt>
      <trkpt lat="49.12503" lon="6.73878">
        <ele>293.38</ele>
        <time>2024-03-05T15:45:27Z</time>
      </trkpt>
      <trkpt lat="49.12513" lon="6.73889">
        <ele>291.83</ele>
        <time>2024-03-05T15:45:35Z</time>
      </trkpt>
      <trkpt lat="49.12519" lon="6.73899">
        <ele>290.18</ele>
        <time>2024-03-05T15:45:43Z</time>
      </trkpt>
      <trkpt lat="49.12527" lon="6.73911">
        <ele>288.69</ele>
        <time>2024-03-05T15:45:51Z</time>
      </trkpt>
      <trkpt lat="49.12534" lon="6.7392">
        <ele>286.76</ele>
        <time>2024-03-05T15:45:59Z</time>
      </trkpt>
      <trkpt lat="49.12544" lon="6.73927">
        <ele>285.09</ele>
        <time>2024-03-05T15:46:07Z</time>
      </trkpt>
      <trkpt lat="49.1255" lon="6.73938">
        <ele>283.71</ele>
        <time>2024-03-05T15:46:15Z</time>
      </trkpt>
      <trkpt lat="49.12559" lon="6.73955">
        <ele>282.27</ele>
        <time>2024-03-05T15:46:23Z</time>
      </trkpt>
      <trkpt lat="49.12571" lon="6.73961">
        <ele>281.08</ele>
        <time>2024-03-05T15:46:30Z</time>
      </trkpt>
      <trkpt lat="49.1258" lon="6.73968">
        <ele>280.3</ele>
        <time>2024-03-05T15:46:36Z</time>
      </trkpt>
      <trkpt lat="49.12588" lon="6.73977">
        <ele>279.23</ele>
        <time>2024-03-05T15:46:43Z</time>
      </trkpt>
      <trkpt lat="49.12594" lon="6.7399">
        <ele>278.38</ele>
        <time>2024-03-05T15:46:50Z</time>
      </trkpt>
      <trkpt lat="49.12598" lon="6.74">
        <ele>277.42</ele>
        <time>2024-03-05T15:46:57Z</time>
      </trkpt>
      <trkpt lat="49.12603" lon="6.74016">
        <ele>276.49</ele>
        <time>2024-03-05T15:47:04Z</time>
      </trkpt>
      <trkpt lat="49.12608" lon="6.74027">
        <ele>275.64</ele>
        <time>2024-03-05T15:47:11Z</time>
      </trkpt>
      <trkpt lat="49.12614" lon="6.74041">
        <ele>274.74</ele>
        <time>2024-03-05T15:47:18Z</time>
      </trkpt>
      <trkpt lat="49.12622" lon="6.74053">
        <ele>274.07</ele>
        <time>2024-03-05T15:47:25Z</time>
      </trkpt>
      <trkpt lat="49.12629" lon="6.74066">
        <ele>273.12</ele>
        <time>2024-03-05T15:47:32Z</time>
      </trkpt>
      <trkpt lat="49.12633" lon="6.74078">
        <ele>272.41</ele>
        <time>2024-03-05T15:47:39Z</time>
      </trkpt>
      <trkpt lat="49.12636" lon="6.74091">
        <ele>271.49</ele>
        <time>2024-03-05T15:47:47Z</time>
      </trkpt>
      <trkpt lat="49.12646" lon="6.74106">
        <ele>270.57</ele>
        <time>2024-03-05T15:47:55Z</time>
      </trkpt>
      <trkpt lat="49.12653" lon="6.74116">
        <ele>270.11</ele>
        <time>2024-03-05T15:48:01Z</time>
      </trkpt>
      <trkpt lat="49.12659" lon="6.74129">
        <ele>269.5</ele>
        <time>2024-03-05T15:48:08Z</time>
      </trkpt>
      <trkpt lat="49.12664" lon="6.7414">
        <ele>268.71</ele>
        <time>2024-03-05T15:48:15Z</time>
      </trkpt>
      <trkpt lat="49.12668" lon="6.74152">
        <ele>268.38</ele>
        <time>2024-03-05T15:48:22Z</time>
      </trkpt>
      <trkpt lat="49.12673" lon="6.74167">
        <ele>267.5</ele>
        <time>2024-03-05T15:48:29Z</time>
      </trkpt>
      <trkpt lat="49.12677" lon="6.74179">
        <ele>266.67</ele>
        <time>2024-03-05T15:48:36Z</time>
      </trkpt>
      <trkpt lat="49.12681" lon="6.74193">
        <ele>266.25</ele>
        <time>2024-03-05T15:48:44Z</time>
      </trkpt>
      <trkpt lat="49.12687" lon="6.7421">
        <ele>265.67</ele>
        <time>2024-03-05T15:48:52Z</time>
      </trkpt>
      <trkpt lat="49.12694" lon="6.74224">
        <ele>265.01</ele>
        <time>2024-03-05T15:48:59Z</time>
      </trkpt>
      <trkpt lat="49.12699" lon="6.74237">
        <ele>264.48</ele>
        <time>2024-03-05T15:49:06Z</time>
      </trkpt>
      <trkpt lat="49.127" lon="6.74249">
        <ele>263.76</ele>
        <time>2024-03-05T15:49:13Z</time>
      </trkpt>
      <trkpt lat="49.12701" lon="6.74263">
        <ele>263.2</ele>
        <time>2024-03-05T15:49:21Z</time>
      </trkpt>
      <trkpt lat="49.1271" lon="6.74276">
        <ele>263.62</ele>
        <time>2024-03-05T15:49:29Z</time>
      </trkpt>
      <trkpt lat="49.12713" lon="6.74281">
        <ele>262.61</ele>
        <time>2024-03-05T15:50:14Z</time>
      </trkpt>
      <trkpt lat="49.12713" lon="6.74301">
        <ele>262.23</ele>
        <time>2024-03-05T15:50:23Z</time>
      </trkpt>
      <trkpt lat="49.12714" lon="6.74315">
        <ele>261.85</ele>
        <time>2024-03-05T15:50:30Z</time>
      </trkpt>
      <trkpt lat="49.12716" lon="6.74328">
        <ele>261.54</ele>
        <time>2024-03-05T15:50:38Z</time>
      </trkpt>
      <trkpt lat="49.12716" lon="6.74342">
        <ele>261.22</ele>
        <time>2024-03-05T15:50:46Z</time>
      </trkpt>
      <trkpt lat="49.12717" lon="6.74356">
        <ele>260.71</ele>
        <time>2024-03-05T15:50:54Z</time>
      </trkpt>
      <trkpt lat="49.12718" lon="6.74372">
        <ele>259.92</ele>
        <time>2024-03-05T15:51:06Z</time>
      </trkpt>
      <trkpt lat="49.12719" lon="6.74388">
        <ele>259.7</ele>
        <time>2024-03-05T15:51:13Z</time>
      </trkpt>
      <trkpt lat="49.12716" lon="6.744">
        <ele>259.49</ele>
        <time>2024-03-05T15:51:21Z</time>
      </trkpt>
      <trkpt lat="49.12718" lon="6.74417">
        <ele>259.21</ele>
        <time>2024-03-05T15:51:29Z</time>
      </trkpt>
      <trkpt lat="49.12721" lon="6.74432">
        <ele>258.76</ele>
        <time>2024-03-05T15:51:36Z</time>
      </trkpt>
      <trkpt lat="49.12722" lon="6.74445">
        <ele>258.32</ele>
        <time>2024-03-05T15:51:43Z</time>
      </trkpt>
      <trkpt lat="49.12725" lon="6.74459">
        <ele>257.76</ele>
        <time>2024-03-05T15:51:51Z</time>
      </trkpt>
      <trkpt lat="49.12726" lon="6.74477">
        <ele>258.04</ele>
        <time>2024-03-05T15:51:59Z</time>
      </trkpt>
      <trkpt lat="49.12727" lon="6.74492">
        <ele>257.53</ele>
        <time>2024-03-05T15:52:06Z</time>
      </trkpt>
      <trkpt lat="49.12729" lon="6.74507">
        <ele>257.1</ele>
        <time>2024-03-05T15:52:13Z</time>
      </trkpt>
      <trkpt lat="49.1273" lon="6.74522">
        <ele>256.69</ele>
        <time>2024-03-05T15:52:20Z</time>
      </trkpt>
      <trkpt lat="49.1273" lon="6.74537">
        <ele>256.45</ele>
        <time>2024-03-05T15:52:27Z</time>
      </trkpt>
      <trkpt lat="49.12726" lon="6.74549">
        <ele>256.16</ele>
        <time>2024-03-05T15:52:34Z</time>
      </trkpt>
      <trkpt lat="49.12725" lon="6.74565">
        <ele>255.81</ele>
        <time>2024-03-05T15:52:42Z</time>
      </trkpt>
      <trkpt lat="49.12722" lon="6.74579">
        <ele>255.47</ele>
        <time>2024-03-05T15:52:49Z</time>
      </trkpt>
      <trkpt lat="49.12719" lon="6.74594">
        <ele>255.09</ele>
        <time>2024-03-05T15:52:56Z</time>
      </trkpt>
      <trkpt lat="49.12718" lon="6.74607">
        <ele>254.7</ele>
        <time>2024-03-05T15:53:03Z</time>
      </trkpt>
      <trkpt lat="49.12716" lon="6.74622">
        <ele>254.44</ele>
        <time>2024-03-05T15:53:10Z</time>
      </trkpt>
      <trkpt lat="49.12716" lon="6.74637">
        <ele>254.23</ele>
        <time>2024-03-05T15:53:17Z</time>
      </trkpt>
      <trkpt lat="49.12713" lon="6.74652">
        <ele>253.91</ele>
        <time>2024-03-05T15:53:24Z</time>
      </trkpt>
      <trkpt lat="49.12712" lon="6.74667">
        <ele>253.76</ele>
        <time>2024-03-05T15:53:31Z</time>
      </trkpt>
      <trkpt lat="49.12711" lon="6.74682">
        <ele>253.23</ele>
        <time>2024-03-05T15:53:38Z</time>
      </trkpt>
      <trkpt lat="49.1271" lon="6.74697">
        <ele>252.99</ele>
        <time>2024-03-05T15:53:45Z</time>
      </trkpt>
      <trkpt lat="49.12709" lon="6.74712">
        <ele>252.57</ele>
        <time>2024-03-05T15:53:52Z</time>
      </trkpt>
      <trkpt lat="49.12708" lon="6.74728">
        <ele>252.34</ele>
        <time>2024-03-05T15:53:59Z</time>
      </trkpt>
      <trkpt lat="49.12706" lon="6.74743">
        <ele>252.01</ele>
        <time>2024-03-05T15:54:06Z</time>
      </trkpt>
      <trkpt lat="49.12702" lon="6.74758">
        <ele>251.73</ele>
        <time>2024-03-05T15:54:13Z</time>
      </trkpt>
      <trkpt lat="49.12699" lon="6.74772">
        <ele>251.28</ele>
        <time>2024-03-05T15:54:20Z</time>
      </trkpt>
      <trkpt lat="49.12697" lon="6.74786">
        <ele>251.21</ele>
        <time>2024-03-05T15:54:27Z</time>
      </trkpt>
      <trkpt lat="49.12694" lon="6.74801">
        <ele>251</ele>
        <time>2024-03-05T15:54:34Z</time>
      </trkpt>
      <trkpt lat="49.12691" lon="6.74814">
        <ele>250.64</ele>
        <time>2024-03-05T15:54:41Z</time>
      </trkpt>
      <trkpt lat="49.12688" lon="6.74829">
        <ele>250.41</ele>
        <time>2024-03-05T15:54:48Z</time>
      </trkpt>
      <trkpt lat="49.12685" lon="6.74843">
        <ele>250.16</ele>
        <time>2024-03-05T15:54:55Z</time>
      </trkpt>
      <trkpt lat="49.12683" lon="6.74857">
        <ele>250.06</ele>
        <time>2024-03-05T15:55:02Z</time>
      </trkpt>
      <trkpt lat="49.12681" lon="6.74871">
        <ele>249.99</ele>
        <time>2024-03-05T15:55:09Z</time>
      </trkpt>
      <trkpt lat="49.12677" lon="6.74887">
        <ele>249.73</ele>
        <time>2024-03-05T15:55:16Z</time>
      </trkpt>
      <trkpt lat="49.12676" lon="6.74903">
        <ele>249.54</ele>
        <time>2024-03-05T15:55:23Z</time>
      </trkpt>
      <trkpt lat="49.12673" lon="6.74916">
        <ele>249.19</ele>
        <time>2024-03-05T15:55:30Z</time>
      </trkpt>
      <trkpt lat="49.12672" lon="6.74931">
        <ele>249.33</ele>
        <time>2024-03-05T15:55:37Z</time>
      </trkpt>
      <trkpt lat="49.12669" lon="6.74946">
        <ele>248.84</ele>
        <time>2024-03-05T15:55:44Z</time>
      </trkpt>
      <trkpt lat="49.12668" lon="6.74961">
        <ele>248.46</ele>
        <time>2024-03-05T15:55:51Z</time>
      </trkpt>
      <trkpt lat="49.12666" lon="6.74975">
        <ele>247.92</ele>
        <time>2024-03-05T15:55:58Z</time>
      </trkpt>
      <trkpt lat="49.12664" lon="6.7499">
        <ele>247.19</ele>
        <time>2024-03-05T15:56:05Z</time>
      </trkpt>
      <trkpt lat="49.12662" lon="6.75005">
        <ele>246.96</ele>
        <time>2024-03-05T15:56:12Z</time>
      </trkpt>
      <trkpt lat="49.12658" lon="6.75019">
        <ele>246.86</ele>
        <time>2024-03-05T15:56:19Z</time>
      </trkpt>
      <trkpt lat="49.12654" lon="6.75031">
        <ele>246.2</ele>
        <time>2024-03-05T15:56:26Z</time>
      </trkpt>
      <trkpt lat="49.12648" lon="6.75047">
        <ele>245.91</ele>
        <time>2024-03-05T15:56:33Z</time>
      </trkpt>
      <trkpt lat="49.12643" lon="6.75058">
        <ele>245.48</ele>
        <time>2024-03-05T15:56:40Z</time>
      </trkpt>
      <trkpt lat="49.12637" lon="6.75071">
        <ele>245.2</ele>
        <time>2024-03-05T15:56:47Z</time>
      </trkpt>
      <trkpt lat="49.12632" lon="6.75084">
        <ele>244.93</ele>
        <time>2024-03-05T15:56:54Z</time>
      </trkpt>
      <trkpt lat="49.12625" lon="6.75097">
        <ele>244.46</ele>
        <time>2024-03-05T15:57:01Z</time>
      </trkpt>
      <trkpt lat="49.12619" lon="6.75109">
        <ele>244.1</ele>
        <time>2024-03-05T15:57:08Z</time>
      </trkpt>
      <trkpt lat="49.12614" lon="6.75123">
        <ele>243.67</ele>
        <time>2024-03-05T15:57:15Z</time>
      </trkpt>
      <trkpt lat="49.12608" lon="6.75134">
        <ele>243.38</ele>
        <time>2024-03-05T15:57:22Z</time>
      </trkpt>
      <trkpt lat="49.12603" lon="6.75149">
        <ele>243.01</ele>
        <time>2024-03-05T15:57:29Z</time>
      </trkpt>
      <trkpt lat="49.12598" lon="6.75163">
        <ele>242.65</ele>
        <time>2024-03-05T15:57:36Z</time>
      </trkpt>
      <trkpt lat="49.12592" lon="6.75176">
        <ele>242.36</ele>
        <time>2024-03-05T15:57:43Z</time>
      </trkpt>
      <trkpt lat="49.12585" lon="6.7519">
        <ele>241.9</ele>
        <time>2024-03-05T15:57:50Z</time>
      </trkpt>
      <trkpt lat="49.12579" lon="6.75204">
        <ele>241.52</ele>
        <time>2024-03-05T15:57:57Z</time>
      </trkpt>
      <trkpt lat="49.12574" lon="6.75218">
        <ele>241.32</ele>
        <time>2024-03-05T15:58:04Z</time>
      </trkpt>
      <trkpt lat="49.12569" lon="6.75232">
        <ele>241.36</ele>
        <time>2024-03-05T15:58:11Z</time>
      </trkpt>
      <trkpt lat="49.12563" lon="6.75244">
        <ele>240.92</ele>
        <time>2024-03-05T15:58:17Z</time>
      </trkpt>
      <trkpt lat="49.12557" lon="6.75254">
        <ele>240.38</ele>
        <time>2024-03-05T15:58:24Z</time>
      </trkpt>
      <trkpt lat="49.12551" lon="6.75269">
        <ele>240.03</ele>
        <time>2024-03-05T15:58:31Z</time>
      </trkpt>
      <trkpt lat="49.12546" lon="6.75283">
        <ele>239.44</ele>
        <time>2024-03-05T15:58:38Z</time>
      </trkpt>
      <trkpt lat="49.12538" lon="6.75296">
        <ele>238.85</ele>
        <time>2024-03-05T15:58:45Z</time>
      </trkpt>
      <trkpt lat="49.1253" lon="6.75306">
        <ele>238.23</ele>
        <time>2024-03-05T15:58:52Z</time>
      </trkpt>
      <trkpt lat="49.12521" lon="6.75309">
        <ele>238.1</ele>
        <time>2024-03-05T15:58:59Z</time>
      </trkpt>
      <trkpt lat="49.12511" lon="6.7531">
        <ele>238.24</ele>
        <time>2024-03-05T15:59:06Z</time>
      </trkpt>
      <trkpt lat="49.12503" lon="6.75317">
        <ele>238.65</ele>
        <time>2024-03-05T15:59:13Z</time>
      </trkpt>
      <trkpt lat="49.12496" lon="6.75327">
        <ele>238.66</ele>
        <time>2024-03-05T15:59:20Z</time>
      </trkpt>
      <trkpt lat="49.12489" lon="6.75341">
        <ele>238.76</ele>
        <time>2024-03-05T15:59:27Z</time>
      </trkpt>
      <trkpt lat="49.12484" lon="6.75355">
        <ele>238.37</ele>
        <time>2024-03-05T15:59:34Z</time>
      </trkpt>
      <trkpt lat="49.12479" lon="6.7537">
        <ele>237.29</ele>
        <time>2024-03-05T15:59:42Z</time>
      </trkpt>
      <trkpt lat="49.12473" lon="6.75383">
        <ele>236.79</ele>
        <time>2024-03-05T15:59:49Z</time>
      </trkpt>
      <trkpt lat="49.12468" lon="6.75397">
        <ele>236.48</ele>
        <time>2024-03-05T15:59:56Z</time>
      </trkpt>
      <trkpt lat="49.12461" lon="6.75412">
        <ele>236.37</ele>
        <time>2024-03-05T16:00:03Z</time>
      </trkpt>
      <trkpt lat="49.12456" lon="6.75424">
        <ele>236.28</ele>
        <time>2024-03-05T16:00:10Z</time>
      </trkpt>
      <trkpt lat="49.12449" lon="6.75435">
        <ele>236.52</ele>
        <time>2024-03-05T16:00:17Z</time>
      </trkpt>
      <trkpt lat="49.12443" lon="6.75446">
        <ele>236.66</ele>
        <time>2024-03-05T16:00:24Z</time>
      </trkpt>
      <trkpt lat="49.12436" lon="6.75458">
        <ele>237.06</ele>
        <time>2024-03-05T16:00:31Z</time>
      </trkpt>
      <trkpt lat="49.12432" lon="6.75471">
        <ele>237.24</ele>
        <time>2024-03-05T16:00:38Z</time>
      </trkpt>
      <trkpt lat="49.12431" lon="6.75486">
        <ele>236.81</ele>
        <time>2024-03-05T16:00:45Z</time>
      </trkpt>
      <trkpt lat="49.12431" lon="6.75499">
        <ele>235.46</ele>
        <time>2024-03-05T16:00:52Z</time>
      </trkpt>
      <trkpt lat="49.12434" lon="6.75515">
        <ele>234.48</ele>
        <time>2024-03-05T16:01:00Z</time>
      </trkpt>
      <trkpt lat="49.12432" lon="6.75531">
        <ele>233.78</ele>
        <time>2024-03-05T16:01:07Z</time>
      </trkpt>
      <trkpt lat="49.12425" lon="6.75543">
        <ele>233.72</ele>
        <time>2024-03-05T16:01:14Z</time>
      </trkpt>
      <trkpt lat="49.12421" lon="6.75557">
        <ele>233.72</ele>
        <time>2024-03-05T16:01:21Z</time>
      </trkpt>
      <trkpt lat="49.12422" lon="6.75571">
        <ele>233.92</ele>
        <time>2024-03-05T16:01:28Z</time>
      </trkpt>
      <trkpt lat="49.12419" lon="6.75583">
        <ele>234</ele>
        <time>2024-03-05T16:01:35Z</time>
      </trkpt>
      <trkpt lat="49.12413" lon="6.75596">
        <ele>233.99</ele>
        <time>2024-03-05T16:01:42Z</time>
      </trkpt>
      <trkpt lat="49.12407" lon="6.7561">
        <ele>234.01</ele>
        <time>2024-03-05T16:01:49Z</time>
      </trkpt>
      <trkpt lat="49.12402" lon="6.75624">
        <ele>233.95</ele>
        <time>2024-03-05T16:01:56Z</time>
      </trkpt>
      <trkpt lat="49.12397" lon="6.75637">
        <ele>233.82</ele>
        <time>2024-03-05T16:02:03Z</time>
      </trkpt>
      <trkpt lat="49.12396" lon="6.75652">
        <ele>233.75</ele>
        <time>2024-03-05T16:02:10Z</time>
      </trkpt>
      <trkpt lat="49.12394" lon="6.75666">
        <ele>233.98</ele>
        <time>2024-03-05T16:02:17Z</time>
      </trkpt>
      <trkpt lat="49.12394" lon="6.75681">
        <ele>233.95</ele>
        <time>2024-03-05T16:02:24Z</time>
      </trkpt>
      <trkpt lat="49.12392" lon="6.75698">
        <ele>234</ele>
        <time>2024-03-05T16:02:31Z</time>
      </trkpt>
      <trkpt lat="49.12391" lon="6.75714">
        <ele>234.07</ele>
        <time>2024-03-05T16:02:38Z</time>
      </trkpt>
      <trkpt lat="49.1239" lon="6.75727">
        <ele>233.92</ele>
        <time>2024-03-05T16:02:44Z</time>
      </trkpt>
      <trkpt lat="49.12389" lon="6.7574">
        <ele>233.89</ele>
        <time>2024-03-05T16:02:50Z</time>
      </trkpt>
      <trkpt lat="49.12385" lon="6.75754">
        <ele>233.78</ele>
        <time>2024-03-05T16:02:57Z</time>
      </trkpt>
      <trkpt lat="49.12381" lon="6.75768">
        <ele>233.84</ele>
        <time>2024-03-05T16:03:04Z</time>
      </trkpt>
      <trkpt lat="49.12377" lon="6.75781">
        <ele>233.78</ele>
        <time>2024-03-05T16:03:10Z</time>
      </trkpt>
      <trkpt lat="49.12374" lon="6.75795">
        <ele>233.46</ele>
        <time>2024-03-05T16:03:17Z</time>
      </trkpt>
      <trkpt lat="49.12373" lon="6.7581">
        <ele>233.16</ele>
        <time>2024-03-05T16:03:24Z</time>
      </trkpt>
      <trkpt lat="49.12372" lon="6.75825">
        <ele>232.95</ele>
        <time>2024-03-05T16:03:31Z</time>
      </trkpt>
      <trkpt lat="49.12374" lon="6.75839">
        <ele>232.32</ele>
        <time>2024-03-05T16:03:38Z</time>
      </trkpt>
      <trkpt lat="49.12375" lon="6.75856">
        <ele>231.67</ele>
        <time>2024-03-05T16:03:45Z</time>
      </trkpt>
      <trkpt lat="49.1238" lon="6.75867">
        <ele>231.31</ele>
        <time>2024-03-05T16:03:52Z</time>
      </trkpt>
      <trkpt lat="49.12384" lon="6.75882">
        <ele>230.62</ele>
        <time>2024-03-05T16:03:59Z</time>
      </trkpt>
      <trkpt lat="49.12383" lon="6.75898">
        <ele>230.7</ele>
        <time>2024-03-05T16:04:06Z</time>
      </trkpt>
      <trkpt lat="49.12383" lon="6.7591">
        <ele>230.23</ele>
        <time>2024-03-05T16:04:12Z</time>
      </trkpt>
      <trkpt lat="49.12383" lon="6.75925">
        <ele>229.58</ele>
        <time>2024-03-05T16:04:19Z</time>
      </trkpt>
      <trkpt lat="49.12383" lon="6.7593">
        <ele>229.12</ele>
        <time>2024-03-05T16:04:22Z</time>
      </trkpt>
    </trkseg>
  </trk>
</gpx>